sensor_id;sensor_type;location;lat;lon;timestamp;P1;durP1;ratioP1;P2;durP2;ratioP2
15966;SDS011;15175;48.154;11.534;2023-12-20T00:03:12;5.57;;;1.60;;
15966;SDS011;15175;48.154;11.534;2023-12-20T00:09:15;4.22;;;1.58;;
15966;SDS011;15175;48.154;11.534;2023-12-20T00:15:19;5.03;;;1.92;;
15966;SDS011;15175;48.154;11.534;2023-12-20T00:21:21;4.10;;;1.50;;
15966;SDS011;15175;48.154;11.534;2023-12-20T00:27:24;3.58;;;1.48;;
15966;SDS011;15175;48.154;11.534;2023-12-20T00:33:27;3.72;;;1.20;;
15966;SDS011;15175;48.154;11.534;2023-12-20T00:45:33;3.20;;;1.13;;
15966;SDS011;15175;48.154;11.534;2023-12-20T00:51:36;3.00;;;1.17;;
15966;SDS011;15175;48.154;11.534;2023-12-20T00:57:38;3.22;;;1.00;;
15966;SDS011;15175;48.154;11.534;2023-12-20T01:03:41;2.72;;;1.10;;
15966;SDS011;15175;48.154;11.534;2023-12-20T01:09:44;3.90;;;1.20;;
15966;SDS011;15175;48.154;11.534;2023-12-20T01:15:46;2.40;;;0.98;;
15966;SDS011;15175;48.154;11.534;2023-12-20T01:21:49;2.45;;;1.00;;
15966;SDS011;15175;48.154;11.534;2023-12-20T01:27:52;2.80;;;1.10;;
15966;SDS011;15175;48.154;11.534;2023-12-20T01:33:54;2.83;;;1.00;;
15966;SDS011;15175;48.154;11.534;2023-12-20T01:39:56;2.60;;;0.90;;
15966;SDS011;15175;48.154;11.534;2023-12-20T01:46:00;2.58;;;1.10;;
15966;SDS011;15175;48.154;11.534;2023-12-20T01:52:03;1.83;;;0.90;;
15966;SDS011;15175;48.154;11.534;2023-12-20T01:58:06;2.08;;;0.82;;
15966;SDS011;15175;48.154;11.534;2023-12-20T02:04:10;1.75;;;0.80;;
15966;SDS011;15175;48.154;11.534;2023-12-20T02:10:12;1.52;;;0.60;;
15966;SDS011;15175;48.154;11.534;2023-12-20T02:16:15;2.05;;;0.80;;
15966;SDS011;15175;48.154;11.534;2023-12-20T02:22:18;1.95;;;0.73;;
15966;SDS011;15175;48.154;11.534;2023-12-20T02:28:21;1.80;;;0.73;;
15966;SDS011;15175;48.154;11.534;2023-12-20T02:34:23;1.48;;;0.60;;
15966;SDS011;15175;48.154;11.534;2023-12-20T02:40:27;1.13;;;0.40;;
15966;SDS011;15175;48.154;11.534;2023-12-20T02:46:29;1.30;;;0.50;;
15966;SDS011;15175;48.154;11.534;2023-12-20T02:52:31;1.27;;;0.40;;
15966;SDS011;15175;48.154;11.534;2023-12-20T02:58:35;2.42;;;0.40;;
15966;SDS011;15175;48.154;11.534;2023-12-20T03:04:37;1.90;;;0.20;;
15966;SDS011;15175;48.154;11.534;2023-12-20T03:10:39;1.00;;;0.30;;
15966;SDS011;15175;48.154;11.534;2023-12-20T03:16:43;0.73;;;0.30;;
15966;SDS011;15175;48.154;11.534;2023-12-20T03:22:48;1.13;;;0.40;;
15966;SDS011;15175;48.154;11.534;2023-12-20T03:28:50;1.67;;;0.47;;
15966;SDS011;15175;48.154;11.534;2023-12-20T03:34:54;0.50;;;0.30;;
15966;SDS011;15175;48.154;11.534;2023-12-20T03:40:56;0.95;;;0.38;;
15966;SDS011;15175;48.154;11.534;2023-12-20T03:46:58;1.17;;;0.40;;
15966;SDS011;15175;48.154;11.534;2023-12-20T03:53:02;0.57;;;0.20;;
15966;SDS011;15175;48.154;11.534;2023-12-20T03:59:05;1.83;;;0.55;;
15966;SDS011;15175;48.154;11.534;2023-12-20T04:05:07;0.90;;;0.50;;
15966;SDS011;15175;48.154;11.534;2023-12-20T04:11:11;1.30;;;0.50;;
15966;SDS011;15175;48.154;11.534;2023-12-20T04:17:14;1.10;;;0.40;;
15966;SDS011;15175;48.154;11.534;2023-12-20T04:29:21;2.30;;;0.68;;
15966;SDS011;15175;48.154;11.534;2023-12-20T04:35:23;2.00;;;0.80;;
15966;SDS011;15175;48.154;11.534;2023-12-20T04:41:26;3.15;;;0.75;;
15966;SDS011;15175;48.154;11.534;2023-12-20T04:47:30;2.50;;;1.05;;
15966;SDS011;15175;48.154;11.534;2023-12-20T04:53:32;2.47;;;1.00;;
15966;SDS011;15175;48.154;11.534;2023-12-20T04:59:35;3.47;;;1.02;;
15966;SDS011;15175;48.154;11.534;2023-12-20T05:05:38;2.55;;;0.93;;
15966;SDS011;15175;48.154;11.534;2023-12-20T05:17:43;3.45;;;1.23;;
15966;SDS011;15175;48.154;11.534;2023-12-20T05:23:46;2.45;;;1.15;;
15966;SDS011;15175;48.154;11.534;2023-12-20T05:29:48;4.80;;;1.90;;
15966;SDS011;15175;48.154;11.534;2023-12-20T05:35:51;3.03;;;1.40;;
15966;SDS011;15175;48.154;11.534;2023-12-20T05:41:55;2.83;;;1.20;;
15966;SDS011;15175;48.154;11.534;2023-12-20T05:47:57;3.38;;;1.30;;
15966;SDS011;15175;48.154;11.534;2023-12-20T05:53:59;2.35;;;0.93;;
15966;SDS011;15175;48.154;11.534;2023-12-20T06:00:03;2.65;;;1.00;;
15966;SDS011;15175;48.154;11.534;2023-12-20T06:06:12;2.60;;;1.05;;
15966;SDS011;15175;48.154;11.534;2023-12-20T06:12:14;3.00;;;1.00;;
15966;SDS011;15175;48.154;11.534;2023-12-20T06:18:18;3.20;;;1.38;;
15966;SDS011;15175;48.154;11.534;2023-12-20T06:30:22;2.65;;;1.20;;
15966;SDS011;15175;48.154;11.534;2023-12-20T06:36:27;4.28;;;1.40;;
15966;SDS011;15175;48.154;11.534;2023-12-20T06:42:29;2.72;;;1.10;;
15966;SDS011;15175;48.154;11.534;2023-12-20T06:48:32;2.28;;;1.02;;
15966;SDS011;15175;48.154;11.534;2023-12-20T06:54:35;2.45;;;1.23;;
15966;SDS011;15175;48.154;11.534;2023-12-20T07:00:38;3.97;;;1.40;;
15966;SDS011;15175;48.154;11.534;2023-12-20T07:06:40;2.65;;;1.15;;
15966;SDS011;15175;48.154;11.534;2023-12-20T07:12:44;2.80;;;0.90;;
15966;SDS011;15175;48.154;11.534;2023-12-20T07:18:48;2.75;;;0.90;;
15966;SDS011;15175;48.154;11.534;2023-12-20T07:24:50;1.92;;;0.90;;
15966;SDS011;15175;48.154;11.534;2023-12-20T07:30:56;2.45;;;0.75;;
15966;SDS011;15175;48.154;11.534;2023-12-20T07:43:00;1.58;;;0.63;;
15966;SDS011;15175;48.154;11.534;2023-12-20T07:49:04;1.55;;;0.60;;
15966;SDS011;15175;48.154;11.534;2023-12-20T07:55:08;1.77;;;0.60;;
15966;SDS011;15175;48.154;11.534;2023-12-20T08:01:11;1.77;;;0.60;;
15966;SDS011;15175;48.154;11.534;2023-12-20T08:07:18;1.15;;;0.52;;
15966;SDS011;15175;48.154;11.534;2023-12-20T08:19:25;3.28;;;0.60;;
15966;SDS011;15175;48.154;11.534;2023-12-20T08:25:29;1.00;;;0.30;;
15966;SDS011;15175;48.154;11.534;2023-12-20T08:37:33;1.27;;;0.50;;
15966;SDS011;15175;48.154;11.534;2023-12-20T08:43:37;1.88;;;0.35;;
15966;SDS011;15175;48.154;11.534;2023-12-20T08:49:40;1.23;;;0.50;;
15966;SDS011;15175;48.154;11.534;2023-12-20T08:55:44;1.27;;;0.50;;
15966;SDS011;15175;48.154;11.534;2023-12-20T09:01:47;3.47;;;0.90;;
15966;SDS011;15175;48.154;11.534;2023-12-20T09:07:54;3.30;;;0.82;;
15966;SDS011;15175;48.154;11.534;2023-12-20T09:13:56;3.63;;;1.10;;
15966;SDS011;15175;48.154;11.534;2023-12-20T09:20:00;2.63;;;1.02;;
15966;SDS011;15175;48.154;11.534;2023-12-20T09:26:02;3.60;;;0.90;;
15966;SDS011;15175;48.154;11.534;2023-12-20T09:32:05;1.55;;;0.63;;
15966;SDS011;15175;48.154;11.534;2023-12-20T09:38:09;1.35;;;0.63;;
15966;SDS011;15175;48.154;11.534;2023-12-20T09:44:14;1.40;;;0.60;;
15966;SDS011;15175;48.154;11.534;2023-12-20T09:50:18;2.17;;;0.60;;
15966;SDS011;15175;48.154;11.534;2023-12-20T09:56:24;2.40;;;0.75;;
15966;SDS011;15175;48.154;11.534;2023-12-20T10:02:27;2.35;;;0.70;;
15966;SDS011;15175;48.154;11.534;2023-12-20T10:08:30;2.30;;;0.75;;
15966;SDS011;15175;48.154;11.534;2023-12-20T10:14:34;3.13;;;0.80;;
15966;SDS011;15175;48.154;11.534;2023-12-20T10:20:36;3.13;;;0.90;;
15966;SDS011;15175;48.154;11.534;2023-12-20T10:26:38;2.72;;;0.90;;
15966;SDS011;15175;48.154;11.534;2023-12-20T10:32:42;1.65;;;0.80;;
15966;SDS011;15175;48.154;11.534;2023-12-20T10:44:47;2.28;;;0.75;;
15966;SDS011;15175;48.154;11.534;2023-12-20T10:50:51;2.70;;;1.00;;
15966;SDS011;15175;48.154;11.534;2023-12-20T10:56:54;1.80;;;0.80;;
15966;SDS011;15175;48.154;11.534;2023-12-20T11:02:59;3.03;;;0.80;;
15966;SDS011;15175;48.154;11.534;2023-12-20T11:09:06;4.18;;;1.13;;
15966;SDS011;15175;48.154;11.534;2023-12-20T11:15:14;2.67;;;1.00;;
15966;SDS011;15175;48.154;11.534;2023-12-20T11:21:17;2.70;;;1.10;;
15966;SDS011;15175;48.154;11.534;2023-12-20T11:27:21;4.28;;;1.13;;
15966;SDS011;15175;48.154;11.534;2023-12-20T11:33:25;3.90;;;1.20;;
15966;SDS011;15175;48.154;11.534;2023-12-20T11:39:30;3.72;;;1.48;;
15966;SDS011;15175;48.154;11.534;2023-12-20T11:45:34;3.55;;;1.42;;
15966;SDS011;15175;48.154;11.534;2023-12-20T11:51:40;3.92;;;1.42;;
15966;SDS011;15175;48.154;11.534;2023-12-20T11:57:42;3.15;;;1.30;;
15966;SDS011;15175;48.154;11.534;2023-12-20T12:03:46;2.83;;;1.30;;
15966;SDS011;15175;48.154;11.534;2023-12-20T12:15:50;2.72;;;1.00;;
15966;SDS011;15175;48.154;11.534;2023-12-20T12:22:04;3.00;;;1.23;;
15966;SDS011;15175;48.154;11.534;2023-12-20T12:28:08;3.70;;;1.13;;
15966;SDS011;15175;48.154;11.534;2023-12-20T12:34:11;3.13;;;1.30;;
15966;SDS011;15175;48.154;11.534;2023-12-20T12:40:15;2.95;;;1.05;;
15966;SDS011;15175;48.154;11.534;2023-12-20T12:46:18;2.42;;;1.33;;
15966;SDS011;15175;48.154;11.534;2023-12-20T12:52:20;3.90;;;1.30;;
15966;SDS011;15175;48.154;11.534;2023-12-20T12:58:24;3.33;;;1.50;;
15966;SDS011;15175;48.154;11.534;2023-12-20T13:04:26;2.40;;;1.10;;
15966;SDS011;15175;48.154;11.534;2023-12-20T13:10:29;5.30;;;1.20;;
15966;SDS011;15175;48.154;11.534;2023-12-20T13:16:32;2.38;;;1.00;;
15966;SDS011;15175;48.154;11.534;2023-12-20T13:22:36;3.03;;;1.13;;
15966;SDS011;15175;48.154;11.534;2023-12-20T13:28:38;2.55;;;0.90;;
15966;SDS011;15175;48.154;11.534;2023-12-20T13:34:41;3.17;;;1.10;;
15966;SDS011;15175;48.154;11.534;2023-12-20T13:46:46;3.78;;;1.00;;
15966;SDS011;15175;48.154;11.534;2023-12-20T13:52:51;2.65;;;0.98;;
15966;SDS011;15175;48.154;11.534;2023-12-20T13:58:53;5.43;;;1.50;;
15966;SDS011;15175;48.154;11.534;2023-12-20T14:04:55;5.85;;;1.77;;
15966;SDS011;15175;48.154;11.534;2023-12-20T14:11:00;2.95;;;1.13;;
15966;SDS011;15175;48.154;11.534;2023-12-20T14:17:02;3.97;;;2.08;;
15966;SDS011;15175;48.154;11.534;2023-12-20T14:23:06;3.25;;;1.13;;
15966;SDS011;15175;48.154;11.534;2023-12-20T14:29:11;4.28;;;1.50;;
15966;SDS011;15175;48.154;11.534;2023-12-20T14:35:13;4.95;;;1.50;;
15966;SDS011;15175;48.154;11.534;2023-12-20T14:41:16;3.50;;;1.10;;
15966;SDS011;15175;48.154;11.534;2023-12-20T14:47:20;7.75;;;1.67;;
15966;SDS011;15175;48.154;11.534;2023-12-20T14:53:22;5.03;;;1.70;;
15966;SDS011;15175;48.154;11.534;2023-12-20T14:59:25;3.47;;;1.20;;
15966;SDS011;15175;48.154;11.534;2023-12-20T15:05:29;3.95;;;1.20;;
15966;SDS011;15175;48.154;11.534;2023-12-20T15:11:31;7.20;;;1.52;;
15966;SDS011;15175;48.154;11.534;2023-12-20T15:17:34;4.90;;;1.20;;
15966;SDS011;15175;48.154;11.534;2023-12-20T15:23:38;5.97;;;2.00;;
15966;SDS011;15175;48.154;11.534;2023-12-20T15:29:44;2.83;;;1.10;;
15966;SDS011;15175;48.154;11.534;2023-12-20T15:35:46;7.07;;;1.15;;
15966;SDS011;15175;48.154;11.534;2023-12-20T15:41:50;4.82;;;1.00;;
15966;SDS011;15175;48.154;11.534;2023-12-20T15:47:52;2.47;;;0.80;;
15966;SDS011;15175;48.154;11.534;2023-12-20T15:53:54;2.97;;;1.17;;
15966;SDS011;15175;48.154;11.534;2023-12-20T15:59:58;6.13;;;1.05;;
15966;SDS011;15175;48.154;11.534;2023-12-20T16:06:01;5.10;;;1.10;;
15966;SDS011;15175;48.154;11.534;2023-12-20T16:12:04;4.30;;;1.20;;
15966;SDS011;15175;48.154;11.534;2023-12-20T16:18:08;5.38;;;1.25;;
15966;SDS011;15175;48.154;11.534;2023-12-20T16:24:11;4.78;;;1.73;;
15966;SDS011;15175;48.154;11.534;2023-12-20T16:30:14;5.30;;;1.63;;
15966;SDS011;15175;48.154;11.534;2023-12-20T16:36:18;6.18;;;1.05;;
15966;SDS011;15175;48.154;11.534;2023-12-20T16:42:20;4.55;;;1.30;;
15966;SDS011;15175;48.154;11.534;2023-12-20T16:48:22;3.70;;;1.40;;
15966;SDS011;15175;48.154;11.534;2023-12-20T16:54:26;6.65;;;1.60;;
15966;SDS011;15175;48.154;11.534;2023-12-20T17:00:29;2.58;;;0.95;;
15966;SDS011;15175;48.154;11.534;2023-12-20T17:06:31;5.18;;;1.85;;
15966;SDS011;15175;48.154;11.534;2023-12-20T17:12:35;3.35;;;1.38;;
15966;SDS011;15175;48.154;11.534;2023-12-20T17:24:39;4.57;;;1.40;;
15966;SDS011;15175;48.154;11.534;2023-12-20T17:30:43;4.18;;;1.40;;
15966;SDS011;15175;48.154;11.534;2023-12-20T17:36:45;9.15;;;2.72;;
15966;SDS011;15175;48.154;11.534;2023-12-20T17:42:48;4.05;;;1.00;;
15966;SDS011;15175;48.154;11.534;2023-12-20T17:48:51;1.58;;;0.90;;
15966;SDS011;15175;48.154;11.534;2023-12-20T18:00:55;5.90;;;1.33;;
15966;SDS011;15175;48.154;11.534;2023-12-20T18:06:59;4.95;;;1.20;;
15966;SDS011;15175;48.154;11.534;2023-12-20T18:19:04;4.93;;;1.20;;
15966;SDS011;15175;48.154;11.534;2023-12-20T18:25:08;5.55;;;1.25;;
15966;SDS011;15175;48.154;11.534;2023-12-20T18:31:10;7.10;;;0.80;;
15966;SDS011;15175;48.154;11.534;2023-12-20T18:37:12;2.50;;;0.90;;
15966;SDS011;15175;48.154;11.534;2023-12-20T18:43:16;7.10;;;1.10;;
15966;SDS011;15175;48.154;11.534;2023-12-20T18:49:20;4.18;;;1.13;;
15966;SDS011;15175;48.154;11.534;2023-12-20T18:55:23;4.55;;;0.90;;
15966;SDS011;15175;48.154;11.534;2023-12-20T19:01:27;4.32;;;1.15;;
15966;SDS011;15175;48.154;11.534;2023-12-20T19:07:29;4.18;;;1.23;;
15966;SDS011;15175;48.154;11.534;2023-12-20T19:13:31;3.72;;;1.00;;
15966;SDS011;15175;48.154;11.534;2023-12-20T19:19:35;4.70;;;1.15;;
15966;SDS011;15175;48.154;11.534;2023-12-20T19:31:40;3.65;;;0.90;;
15966;SDS011;15175;48.154;11.534;2023-12-20T19:37:44;4.38;;;1.20;;
15966;SDS011;15175;48.154;11.534;2023-12-20T19:43:47;2.55;;;0.98;;
15966;SDS011;15175;48.154;11.534;2023-12-20T19:49:49;3.25;;;0.70;;
15966;SDS011;15175;48.154;11.534;2023-12-20T19:55:53;4.18;;;0.90;;
15966;SDS011;15175;48.154;11.534;2023-12-20T20:01:55;4.85;;;1.10;;
15966;SDS011;15175;48.154;11.534;2023-12-20T20:08:00;1.90;;;0.77;;
15966;SDS011;15175;48.154;11.534;2023-12-20T20:14:04;4.70;;;0.98;;
15966;SDS011;15175;48.154;11.534;2023-12-20T20:20:06;4.03;;;1.08;;
15966;SDS011;15175;48.154;11.534;2023-12-20T20:26:09;5.85;;;1.20;;
15966;SDS011;15175;48.154;11.534;2023-12-20T20:32:13;4.18;;;0.90;;
15966;SDS011;15175;48.154;11.534;2023-12-20T20:38:15;3.80;;;1.35;;
15966;SDS011;15175;48.154;11.534;2023-12-20T20:44:17;3.00;;;0.88;;
15966;SDS011;15175;48.154;11.534;2023-12-20T20:50:21;3.75;;;0.90;;
15966;SDS011;15175;48.154;11.534;2023-12-20T20:56:23;4.10;;;0.98;;
15966;SDS011;15175;48.154;11.534;2023-12-20T21:02:26;5.32;;;1.75;;
15966;SDS011;15175;48.154;11.534;2023-12-20T21:08:30;2.47;;;0.60;;
15966;SDS011;15175;48.154;11.534;2023-12-20T21:20:34;1.83;;;0.60;;
15966;SDS011;15175;48.154;11.534;2023-12-20T21:26:38;2.90;;;0.70;;
15966;SDS011;15175;48.154;11.534;2023-12-20T21:32:40;1.73;;;0.68;;
15966;SDS011;15175;48.154;11.534;2023-12-20T21:38:45;3.28;;;0.75;;
15966;SDS011;15175;48.154;11.534;2023-12-20T21:44:48;5.20;;;0.93;;
15966;SDS011;15175;48.154;11.534;2023-12-20T21:50:51;2.20;;;0.63;;
15966;SDS011;15175;48.154;11.534;2023-12-20T21:56:53;3.90;;;0.82;;
15966;SDS011;15175;48.154;11.534;2023-12-20T22:02:57;3.25;;;0.40;;
15966;SDS011;15175;48.154;11.534;2023-12-20T22:09:00;5.28;;;1.00;;
15966;SDS011;15175;48.154;11.534;2023-12-20T22:15:03;3.70;;;0.63;;
15966;SDS011;15175;48.154;11.534;2023-12-20T22:21:07;1.27;;;0.47;;
15966;SDS011;15175;48.154;11.534;2023-12-20T22:27:10;1.85;;;0.70;;
15966;SDS011;15175;48.154;11.534;2023-12-20T22:33:12;2.28;;;0.65;;
15966;SDS011;15175;48.154;11.534;2023-12-20T22:39:16;5.05;;;0.63;;
15966;SDS011;15175;48.154;11.534;2023-12-20T22:45:18;2.95;;;0.75;;
15966;SDS011;15175;48.154;11.534;2023-12-20T22:51:21;2.58;;;0.45;;
15966;SDS011;15175;48.154;11.534;2023-12-20T22:57:24;1.70;;;0.60;;
15966;SDS011;15175;48.154;11.534;2023-12-20T23:09:29;3.28;;;0.60;;
15966;SDS011;15175;48.154;11.534;2023-12-20T23:15:32;3.22;;;0.57;;
15966;SDS011;15175;48.154;11.534;2023-12-20T23:21:35;2.25;;;0.32;;
15966;SDS011;15175;48.154;11.534;2023-12-20T23:27:37;1.10;;;0.35;;
15966;SDS011;15175;48.154;11.534;2023-12-20T23:33:40;0.38;;;0.13;;
15966;SDS011;15175;48.154;11.534;2023-12-20T23:39:45;2.28;;;0.50;;
15966;SDS011;15175;48.154;11.534;2023-12-20T23:45:47;2.33;;;0.30;;
15966;SDS011;15175;48.154;11.534;2023-12-20T23:51:51;1.15;;;0.30;;
